Terminal Aerodrome Forecast
Issued by NWS

Home | Current Version | Previous Version | Text Only | Print | Product List | Glossary On
Versions: 1 2 3 4 5 6 7 8 9 10 11 12 13 14 15 16 17
000
FTUS46 KPDT 201100 RRA
TAFRDM
TAF
KRDM 201141Z 2012/2112 14006KT P6SM SCT100
     FM201600 20006KT P6SM SCT060 BKN100
      TEMPO 2016/2018 -RA BKN060 BKN080
     FM201800 30008KT P6SM -RA BKN050
     FM202100 32015G25KT P6SM VCSH BKN050 BKN100
      TEMPO 2022/2102 -RA SCT050 BKN100=

USA.gov is the U.S. government's official web portal to all federal, state and local government web resources and services.